Aérodrome :
LOGIN :

S'inscrire | Disclaimer

   EN    FR    IT 

 










Légende :    VFR   VFR Marginal   IFR   IFR Intensif   IFR Très Intensif
Visi : 
Plafond : 
>= 8 km
>= 3000ft
5 à 8 km
1000 à 3000 ft
1500m à 5 km
500 à 1000 ft
800 à 1500m
200 à 500 ft
< 800m
< 200 ft
Symboles :   Orages  Brouillard  Fortes neiges  Fortes précipitations  Vent > 20 kt
SIGMETs :   Divers  Orages  Givrage  Turbulence  Onde Orograph.  Cendres Volcan.







- Altitude de l'aérodrome : 1 ft
- Voir les cartes d'approche


EGCK - Caernarfon

DERNIER METAR :
  • 162350Z AUTO 17016KT 9999 SCT021/// 10/07 Q1011

METARs EXPIRÉS :
  • 162320Z AUTO 18018KT 9999 OVC020/// 10/07 Q1012
  • 162250Z AUTO 18019KT 9999 OVC016/// 10/08 Q1012
  • 162220Z AUTO 19020KT 9999 OVC015/// 10/08 Q1013
  • 162150Z AUTO 18021KT 9999 OVC016/// 10/08 Q1013
  • 162120Z AUTO 18024G36KT 9999 OVC018/// 11/08 Q1014
  • 162050Z AUTO 18025KT 9999 BKN011/// OVC025/// 11/09 Q1013

TAF TAF EGCK
Valide du 17 à 00h jusqu'au 17 à 09h UTC


162257Z 1700/1709 18019KT 9999 FEW008 SCT035
PROB40
TEMPO 1700/1709 19023G35KT
PROB30
TEMPO 1700/1703 8000 BKN008
TEMPO 1708/1709 7000 RA BKN012
Pas de NOTAMs connus pour ce terrain.



MET'MAP, la Météo Aéronautique d'un coup d'oeil ! - Copyright ORBIFLY Décembre 2007 - Disclaimer

ORBIFLY MET'MAP TEAM :

Programmation & Développement : Alexandra Zaïnal
Conception & Développement : Baudouin d'Aumeries
Co-Programmation & Développement : Marc-Olivier Méhu
Soutien technique & logistique : Manuel Goepfert

Contact : metmap@orbifly.com




SOURCES & CREDITS :

   NOAA